Town Center, New Jersey
Current Conditions -  °F | °C
As of 10:53 PM on Sunday 25 Jan 2015 (Local Time) from KCDW Reporting Station
Overcast Overcast  
Wind Chill: 21°   Ceiling: 5500
Heat Index: 29°   Visibility: 10mi
Dew Point:   Wind: 8mph
Humidity: 43%   Direction: 50°NE
Pressure: 29.99"   Gusts: NA
Location:  40.7895°N, 74.2629°W
Report Text: KCDW 260353Z AUTO 05007KT 10SM OVC055 M02/M13 A2999 RMK AO2 SLP161 T10171128 TSNO $
Loading
Personal Weather Stations






























Interactive Weather Map New forecast layout! Learn more

10-Day Weather Forecast

Advertisements
Track Severe Weather on mobile